createdAt,value
2019-02-27T00:00:43.761Z,3.35
2019-02-27T00:03:14.362Z,3.55
2019-02-27T00:05:45.402Z,3.15
2019-02-27T00:08:16.441Z,3.25
2019-02-27T00:10:47.480Z,2.70
2019-02-27T00:13:18.529Z,2.80
2019-02-27T00:15:49.559Z,2.95
2019-02-27T00:18:23.770Z,3.30
2019-02-27T00:20:53.348Z,2.40
2019-02-27T00:23:24.684Z,2.80
2019-02-27T00:25:55.703Z,2.95
2019-02-27T00:28:26.774Z,3.10
2019-02-27T00:30:57.901Z,3.20
2019-02-27T00:33:28.922Z,3.35
2019-02-27T00:35:59.978Z,3.65
2019-02-27T00:38:31.002Z,3.67
2019-02-27T00:41:02.706Z,3.60
2019-02-27T00:43:33.763Z,3.45
2019-02-27T00:46:04.814Z,2.85
2019-02-27T00:48:35.848Z,3.15
2019-02-27T00:51:09.657Z,3.98
2019-02-27T00:53:40.628Z,3.90
2019-02-27T00:56:12.143Z,3.30
2019-02-27T00:58:43.882Z,5.58
2019-02-27T01:01:14.951Z,3.60
2019-02-27T01:03:45.968Z,3.33
2019-02-27T01:06:17.031Z,4.37
2019-02-27T01:08:48.050Z,3.20
2019-02-27T01:11:19.131Z,3.55
2019-02-27T01:13:50.152Z,3.40
2019-02-27T01:16:21.236Z,3.02
2019-02-27T01:18:52.347Z,3.85
2019-02-27T01:21:23.400Z,3.50
2019-02-27T01:23:54.459Z,2.83
2019-02-27T01:26:30.420Z,3.50
2019-02-27T01:28:58.247Z,2.75
2019-02-27T01:31:30.760Z,4.15
2019-02-27T01:34:01.809Z,2.83
2019-02-27T01:36:32.836Z,3.60
2019-02-27T01:39:04.696Z,4.33
2019-02-27T01:41:37.323Z,2.83
2019-02-27T01:44:11.038Z,3.35
2019-02-27T01:46:41.117Z,2.77
2019-02-27T01:49:15.862Z,2.70
2019-02-27T01:51:44.883Z,2.75
2019-02-27T01:54:15.944Z,3.60
2019-02-27T01:56:46.967Z,3.00
2019-02-27T01:59:18.042Z,2.05
2019-02-27T02:01:49.116Z,2.90
2019-02-27T02:04:20.840Z,2.90
2019-02-27T02:06:53.010Z,3.00
2019-02-27T02:09:35.650Z,2.52
2019-02-27T02:12:20.166Z,2.98
2019-02-27T02:15:10.483Z,2.62
2019-02-27T02:18:13.940Z,2.20
2019-02-27T02:21:01.852Z,2.60
2019-02-27T02:23:59.477Z,2.60
2019-02-27T02:26:46.605Z,2.60
2019-02-27T02:29:36.590Z,2.40
2019-02-27T02:32:30.994Z,2.00
2019-02-27T02:35:17.950Z,2.33
2019-02-27T02:38:13.986Z,2.17
2019-02-27T02:40:55.498Z,2.27
2019-02-27T02:44:05.345Z,2.00
2019-02-27T02:47:04.438Z,2.77
2019-02-27T02:50:03.521Z,2.25
2019-02-27T02:52:50.546Z,2.30
2019-02-27T02:55:37.553Z,2.70
2019-02-27T02:58:22.301Z,1.80
2019-02-27T03:01:03.809Z,2.70
2019-02-27T03:03:48.364Z,2.70
2019-02-27T03:06:47.510Z,2.17
2019-02-27T03:09:30.029Z,2.55
2019-02-27T03:12:31.042Z,2.25
2019-02-27T03:15:28.467Z,2.60
2019-02-27T03:18:26.168Z,2.72
2019-02-27T03:21:28.548Z,2.25
2019-02-27T03:24:03.429Z,2.10
2019-02-27T03:26:56.639Z,2.10
2019-02-27T03:29:40.873Z,2.08
2019-02-27T03:32:18.841Z,2.27
2019-02-27T03:35:27.907Z,2.10
2019-02-27T03:37:59.529Z,1.52
2019-02-27T03:40:55.677Z,2.17
2019-02-27T03:43:33.970Z,1.70
2019-02-27T03:46:32.659Z,1.70
2019-02-27T03:49:26.105Z,2.45
2019-02-27T03:52:26.702Z,2.37
2019-02-27T03:55:42.223Z,2.65
2019-02-27T03:58:33.984Z,2.77
2019-02-27T04:01:17.843Z,3.08
2019-02-27T04:04:34.476Z,3.77
2019-02-27T04:07:15.521Z,2.30
2019-02-27T04:09:46.551Z,2.42
2019-02-27T04:12:17.619Z,2.35
2019-02-27T04:14:48.640Z,2.67
2019-02-27T04:17:27.962Z,2.25
2019-02-27T04:19:59.381Z,2.00
2019-02-27T04:22:36.615Z,2.02
2019-02-27T04:25:03.214Z,2.87
2019-02-27T04:27:34.288Z,2.00
2019-02-27T04:30:08.505Z,2.60
2019-02-27T04:32:39.558Z,2.80
2019-02-27T04:35:10.608Z,3.15
2019-02-27T04:37:41.753Z,2.50
2019-02-27T04:40:12.811Z,2.87
2019-02-27T04:42:43.831Z,2.45
2019-02-27T04:45:14.901Z,2.12
2019-02-27T04:47:45.923Z,2.40
2019-02-27T04:50:16.984Z,2.72
2019-02-27T04:52:48.008Z,2.67
2019-02-27T04:55:19.081Z,3.65
2019-02-27T04:57:50.117Z,2.72
2019-02-27T05:00:21.188Z,2.80
2019-02-27T05:02:53.399Z,2.40
2019-02-27T05:05:25.127Z,2.02
2019-02-27T05:07:56.150Z,2.58
2019-02-27T05:10:27.205Z,2.27
2019-02-27T05:12:58.228Z,2.80
2019-02-27T05:15:29.281Z,3.17
2019-02-27T05:18:00.323Z,2.30
2019-02-27T05:20:31.381Z,2.55
2019-02-27T05:23:02.402Z,2.02
2019-02-27T05:25:33.460Z,2.40
2019-02-27T05:28:04.533Z,2.90
2019-02-27T05:30:35.553Z,2.25
2019-02-27T05:33:06.622Z,2.83
2019-02-27T05:35:37.647Z,3.05
2019-02-27T05:38:08.712Z,3.08
2019-02-27T05:40:39.746Z,3.10
2019-02-27T05:43:13.171Z,2.65
2019-02-27T05:45:43.551Z,1.95
2019-02-27T05:48:14.615Z,2.87
2019-02-27T05:50:45.651Z,4.20
2019-02-27T05:53:16.720Z,3.10
2019-02-27T05:55:47.745Z,2.98
2019-02-27T05:58:22.840Z,2.67
2019-02-27T06:00:51.529Z,3.40
2019-02-27T06:03:22.591Z,2.83
2019-02-27T06:05:53.634Z,3.08
2019-02-27T06:08:24.705Z,3.22
2019-02-27T06:10:56.234Z,4.45
2019-02-27T06:13:27.419Z,4.12
2019-02-27T06:16:02.921Z,4.83
2019-02-27T06:18:31.262Z,3.50
2019-02-27T06:21:02.352Z,3.55
2019-02-27T06:23:35.330Z,3.65
2019-02-27T06:26:06.186Z,3.90
2019-02-27T06:28:37.253Z,5.58
2019-02-27T06:31:08.289Z,4.40
2019-02-27T06:33:39.322Z,4.53
2019-02-27T06:36:10.387Z,4.33
2019-02-27T06:38:41.426Z,4.33
2019-02-27T06:41:15.392Z,4.85
2019-02-27T06:43:45.450Z,4.50
2019-02-27T06:46:17.338Z,4.25
2019-02-27T06:48:49.236Z,4.53
2019-02-27T06:51:20.291Z,5.03
2019-02-27T06:53:51.327Z,4.20
2019-02-27T06:56:22.421Z,5.20
2019-02-27T06:58:53.542Z,7.20
2019-02-27T07:01:24.661Z,5.67
2019-02-27T07:03:55.688Z,6.20
2019-02-27T07:06:26.754Z,5.60
2019-02-27T07:08:57.803Z,5.58
2019-02-27T07:11:28.859Z,5.35
2019-02-27T07:13:59.892Z,4.67
2019-02-27T07:16:30.953Z,5.97
2019-02-27T07:19:01.979Z,6.70
2019-02-27T07:21:33.620Z,4.30
2019-02-27T07:24:04.733Z,2.83
2019-02-27T07:26:35.756Z,2.55
2019-02-27T07:29:06.809Z,2.02
2019-02-27T07:31:37.842Z,2.20
2019-02-27T07:34:08.905Z,2.62
2019-02-27T07:36:39.921Z,2.45
2019-02-27T07:39:10.981Z,2.35
2019-02-27T07:41:42.005Z,2.22
2019-02-27T07:44:13.066Z,1.85
2019-02-27T07:46:45.486Z,2.15
2019-02-27T07:49:16.522Z,2.22
2019-02-27T07:51:48.537Z,1.90
2019-02-27T07:54:19.678Z,1.87
2019-02-27T07:56:50.703Z,2.35
2019-02-27T07:59:21.752Z,2.20
2019-02-27T08:01:52.783Z,3.00
2019-02-27T08:04:23.850Z,2.60
2019-02-27T08:06:55.904Z,2.00
2019-02-27T08:09:29.963Z,1.70
2019-02-27T08:11:59.704Z,2.45
2019-02-27T08:14:30.760Z,1.50
2019-02-27T08:17:02.495Z,3.27
2019-02-27T08:19:33.539Z,2.37
2019-02-27T08:22:04.586Z,2.50
2019-02-27T08:24:35.712Z,2.60
2019-02-27T08:27:09.676Z,2.08
2019-02-27T08:29:41.009Z,3.20
2019-02-27T08:32:12.074Z,2.30
2019-02-27T08:34:43.093Z,2.40
2019-02-27T08:37:14.149Z,2.00
2019-02-27T08:39:45.178Z,2.12
2019-02-27T08:42:17.234Z,1.95
2019-02-27T08:44:48.360Z,2.50
2019-02-27T08:47:19.417Z,3.20
2019-02-27T08:49:50.480Z,2.95
2019-02-27T08:52:21.505Z,3.00
2019-02-27T08:54:52.563Z,3.90
2019-02-27T08:57:23.610Z,4.70
2019-02-27T08:59:54.668Z,3.77
2019-02-27T09:02:29.256Z,3.98
2019-02-27T09:04:58.454Z,5.37
2019-02-27T09:07:29.482Z,4.30
2019-02-27T09:10:00.542Z,5.65
2019-02-27T09:12:31.575Z,4.25
2019-02-27T09:15:02.639Z,5.40
2019-02-27T09:17:33.686Z,6.58
2019-02-27T09:20:08.844Z,5.20
2019-02-27T09:22:39.875Z,5.65
2019-02-27T09:25:12.942Z,6.45
2019-02-27T09:27:43.982Z,6.45
2019-02-27T09:30:18.802Z,6.00
2019-02-27T09:32:49.874Z,7.80
2019-02-27T09:35:20.949Z,7.05
2019-02-27T09:37:52.116Z,6.30
2019-02-27T09:40:29.658Z,7.30
2019-02-27T09:43:01.008Z,6.37
2019-02-27T09:45:38.883Z,6.67
2019-02-27T09:48:10.316Z,7.62
2019-02-27T09:50:49.101Z,7.58
2019-02-27T09:53:20.237Z,6.75
2019-02-27T09:55:54.352Z,8.40
2019-02-27T09:58:24.047Z,7.12
2019-02-27T10:01:08.061Z,7.87
2019-02-27T10:03:39.166Z,7.33
2019-02-27T10:06:10.235Z,7.40
2019-02-27T10:08:41.273Z,7.70
2019-02-27T10:11:13.340Z,8.35
2019-02-27T10:13:44.406Z,8.35
2019-02-27T10:16:15.487Z,7.62
2019-02-27T10:18:46.564Z,7.10
2019-02-27T10:21:17.602Z,6.80
2019-02-27T10:23:48.738Z,8.43
2019-02-27T10:26:22.087Z,9.30
2019-02-27T10:28:52.604Z,7.17
2019-02-27T10:31:25.996Z,7.33
2019-02-27T10:33:56.411Z,8.15
2019-02-27T10:36:27.429Z,8.80
2019-02-27T10:39:02.136Z,8.70
2019-02-27T10:41:33.716Z,7.60
2019-02-27T10:44:05.759Z,7.63
2019-02-27T10:46:36.771Z,9.60
2019-02-27T10:49:07.828Z,7.77
2019-02-27T10:51:38.840Z,9.43
2019-02-27T10:54:09.878Z,9.00
2019-02-27T10:56:40.891Z,9.23
2019-02-27T10:59:12.941Z,7.93
2019-02-27T11:01:43.982Z,8.20
2019-02-27T11:04:15.382Z,8.07
2019-02-27T11:06:46.452Z,7.47
2019-02-27T11:09:24.069Z,7.57
2019-02-27T11:11:55.109Z,7.33
2019-02-27T11:14:26.119Z,6.80
2019-02-27T11:17:02.025Z,7.97
2019-02-27T11:19:29.849Z,7.07
2019-02-27T11:22:00.969Z,6.97
2019-02-27T11:24:32.176Z,6.33
2019-02-27T11:27:06.068Z,5.83
2019-02-27T11:29:36.923Z,6.80
2019-02-27T11:32:08.055Z,6.70
2019-02-27T11:34:39.074Z,5.87
2019-02-27T11:37:13.154Z,6.10
2019-02-27T11:39:42.819Z,6.27
2019-02-27T11:42:13.869Z,6.63
2019-02-27T11:44:49.448Z,6.00
2019-02-27T11:47:17.716Z,6.90
2019-02-27T11:49:48.751Z,6.67
2019-02-27T11:52:19.763Z,5.90
2019-02-27T11:54:51.808Z,7.43
2019-02-27T11:57:22.800Z,6.70
2019-02-27T11:59:53.831Z,6.67
2019-02-27T12:02:29.069Z,6.10
2019-02-27T12:04:57.655Z,7.87
2019-02-27T12:07:28.664Z,6.80
2019-02-27T12:09:59.725Z,7.97
2019-02-27T12:12:30.786Z,6.80
2019-02-27T12:15:01.827Z,6.73
2019-02-27T12:17:32.843Z,6.00
2019-02-27T12:20:06.771Z,6.43
2019-02-27T12:22:37.774Z,6.07
2019-02-27T12:25:17.875Z,10.60
2019-02-27T12:27:50.462Z,7.00
2019-02-27T12:30:24.470Z,6.23
2019-02-27T12:32:56.775Z,5.83
2019-02-27T12:35:33.457Z,6.00
2019-02-27T12:38:08.067Z,5.00
2019-02-27T12:40:38.128Z,5.53
2019-02-27T12:43:09.169Z,8.57
2019-02-27T12:45:40.178Z,27.03
2019-02-27T12:48:12.548Z,5.50
2019-02-27T12:50:43.914Z,5.60
2019-02-27T12:53:14.946Z,5.57
2019-02-27T12:55:45.949Z,5.57
2019-02-27T12:58:16.976Z,5.30
2019-02-27T13:00:47.982Z,5.60
2019-02-27T13:03:19.016Z,7.47
2019-02-27T13:05:50.076Z,4.97
2019-02-27T13:08:21.185Z,5.30
2019-02-27T13:10:52.183Z,5.10
2019-02-27T13:13:25.765Z,6.47
2019-02-27T13:15:56.904Z,4.00
2019-02-27T13:18:31.727Z,4.43
2019-02-27T13:21:00.573Z,4.67
2019-02-27T13:23:31.628Z,4.23
2019-02-27T13:26:02.634Z,5.17
2019-02-27T13:28:33.663Z,5.80
2019-02-27T13:31:04.658Z,4.77
2019-02-27T13:33:38.777Z,4.37
2019-02-27T13:36:08.521Z,4.13
2019-02-27T13:38:39.560Z,5.77
2019-02-27T13:41:11.213Z,11.33
2019-02-27T13:43:42.284Z,16.13
2019-02-27T13:46:13.325Z,6.50
2019-02-27T13:48:44.327Z,5.13
2019-02-27T13:51:15.365Z,5.60
2019-02-27T13:53:46.363Z,4.97
2019-02-27T13:56:17.405Z,4.80
2019-02-27T13:58:48.405Z,4.80
2019-02-27T14:01:19.448Z,7.17
2019-02-27T14:03:50.466Z,11.80
2019-02-27T14:06:21.511Z,4.37
2019-02-27T14:08:52.513Z,4.63
2019-02-27T14:11:24.867Z,4.13
2019-02-27T14:13:56.254Z,5.47
2019-02-27T14:16:27.286Z,5.33
2019-02-27T14:18:58.286Z,8.70
2019-02-27T14:21:29.328Z,6.27
2019-02-27T14:24:00.330Z,6.57
2019-02-27T14:26:31.391Z,5.40
2019-02-27T14:29:04.109Z,5.80
2019-02-27T14:31:35.280Z,6.17
2019-02-27T14:34:06.282Z,5.20
2019-02-27T14:36:39.321Z,5.60
2019-02-27T14:39:10.217Z,4.33
2019-02-27T14:41:41.463Z,4.90
2019-02-27T14:44:12.504Z,4.37
2019-02-27T14:46:45.006Z,4.87
2019-02-27T14:49:16.270Z,4.70
2019-02-27T14:51:47.290Z,6.60
2019-02-27T14:54:18.323Z,6.40
2019-02-27T14:56:49.567Z,4.90
2019-02-27T14:59:21.700Z,5.10
2019-02-27T15:01:52.712Z,5.47
2019-02-27T15:04:23.774Z,5.10
2019-02-27T15:06:54.770Z,5.33
2019-02-27T15:09:25.796Z,5.37
2019-02-27T15:11:56.811Z,5.03
2019-02-27T15:14:27.856Z,6.17
2019-02-27T15:16:58.872Z,6.07
2019-02-27T15:19:30.657Z,5.43
2019-02-27T15:22:01.801Z,5.60
2019-02-27T15:24:34.782Z,5.43
2019-02-27T15:27:05.545Z,5.80
2019-02-27T15:29:36.902Z,4.53
2019-02-27T15:32:08.024Z,5.80
2019-02-27T15:34:39.068Z,7.00
2019-02-27T15:37:10.088Z,5.90
2019-02-27T15:39:41.213Z,5.33
2019-02-27T15:42:12.246Z,6.30
2019-02-27T15:44:43.251Z,5.77
2019-02-27T15:47:14.295Z,4.97
2019-02-27T15:49:48.366Z,5.70
2019-02-27T15:52:18.033Z,5.37
2019-02-27T15:54:49.048Z,6.97
2019-02-27T15:57:20.079Z,6.23
2019-02-27T15:59:51.091Z,5.53
2019-02-27T16:02:22.123Z,5.47
2019-02-27T16:04:55.509Z,5.83
2019-02-27T16:07:25.851Z,6.20
2019-02-27T16:09:56.852Z,6.13
2019-02-27T16:12:27.895Z,7.20
2019-02-27T16:14:58.898Z,6.53
2019-02-27T16:17:31.355Z,6.83
2019-02-27T16:20:02.691Z,7.23
2019-02-27T16:22:33.729Z,6.77
2019-02-27T16:25:06.751Z,6.53
2019-02-27T16:27:38.741Z,6.93
2019-02-27T16:30:22.971Z,53.03
2019-02-27T16:32:54.020Z,14.90
2019-02-27T16:35:25.058Z,8.80
2019-02-27T16:37:57.541Z,7.50
2019-02-27T16:40:30.534Z,6.83
2019-02-27T16:43:01.548Z,6.43
2019-02-27T16:45:36.965Z,6.80
2019-02-27T16:48:08.502Z,6.10
2019-02-27T16:50:39.537Z,5.50
2019-02-27T16:53:13.308Z,6.57
2019-02-27T16:55:43.333Z,6.47
2019-02-27T16:58:14.406Z,6.00
2019-02-27T17:00:45.452Z,6.83
2019-02-27T17:03:16.494Z,7.00
2019-02-27T17:05:49.673Z,6.22
2019-02-27T17:08:20.301Z,6.78
2019-02-27T17:10:51.941Z,5.85
2019-02-27T17:13:23.625Z,6.65
2019-02-27T17:15:54.730Z,6.45
2019-02-27T17:18:28.336Z,7.35
2019-02-27T17:20:58.584Z,7.37
2019-02-27T17:23:29.617Z,5.95
2019-02-27T17:26:04.338Z,6.15
2019-02-27T17:28:33.562Z,6.20
2019-02-27T17:31:04.626Z,5.72
2019-02-27T17:33:37.909Z,6.60
2019-02-27T17:36:08.463Z,6.80
2019-02-27T17:38:39.528Z,7.53
2019-02-27T17:41:10.612Z,7.78
2019-02-27T17:43:41.680Z,7.40
2019-02-27T17:46:12.725Z,7.70
2019-02-27T17:48:46.052Z,6.60
2019-02-27T17:51:16.522Z,6.42
2019-02-27T17:53:47.593Z,6.22
2019-02-27T17:56:18.660Z,7.28
2019-02-27T17:58:49.740Z,6.15
2019-02-27T18:01:24.903Z,7.00
2019-02-27T18:03:54.408Z,9.35
2019-02-27T18:06:25.465Z,9.25
2019-02-27T18:08:56.638Z,10.98
2019-02-27T18:11:27.759Z,12.30
2019-02-27T18:13:58.824Z,14.10
2019-02-27T18:16:29.867Z,15.38
2019-02-27T18:19:00.937Z,15.25
2019-02-27T18:21:33.799Z,12.82
2019-02-27T18:24:04.758Z,12.88
2019-02-27T18:26:35.873Z,12.35
2019-02-27T18:29:07.735Z,12.88
2019-02-27T18:31:39.355Z,11.35
2019-02-27T18:34:10.427Z,13.60
2019-02-27T18:36:42.990Z,12.53
2019-02-27T18:39:14.288Z,8.53
2019-02-27T18:41:45.858Z,9.08
2019-02-27T18:44:20.144Z,8.48
2019-02-27T18:46:51.208Z,9.55
2019-02-27T18:49:22.591Z,13.22
2019-02-27T18:51:53.769Z,13.78
2019-02-27T18:54:25.260Z,14.15
2019-02-27T18:56:59.081Z,12.37
2019-02-27T18:59:30.252Z,11.60
2019-02-27T19:02:01.481Z,11.15
2019-02-27T19:04:35.057Z,11.70
2019-02-27T19:07:05.380Z,8.33
2019-02-27T19:09:37.502Z,6.30
2019-02-27T19:12:08.603Z,6.60
2019-02-27T19:14:40.659Z,7.85
2019-02-27T19:17:11.832Z,6.42
2019-02-27T19:19:42.978Z,7.47
2019-02-27T19:22:14.110Z,6.05
2019-02-27T19:24:45.173Z,5.78
2019-02-27T19:27:18.339Z,4.90
2019-02-27T19:29:48.966Z,6.40
2019-02-27T19:32:23.128Z,7.50
2019-02-27T19:34:52.682Z,7.78
2019-02-27T19:37:23.808Z,9.15
2019-02-27T19:39:56.359Z,6.55
2019-02-27T19:42:27.695Z,4.55
2019-02-27T19:45:03.790Z,3.92
2019-02-27T19:47:31.626Z,5.55
2019-02-27T19:50:02.692Z,4.87
2019-02-27T19:52:33.732Z,5.45
2019-02-27T19:55:06.180Z,3.80
2019-02-27T19:57:39.272Z,4.20
2019-02-27T20:00:20.077Z,3.60
2019-02-27T20:02:55.169Z,5.17
2019-02-27T20:05:24.186Z,5.20
2019-02-27T20:07:55.855Z,5.30
2019-02-27T20:10:30.988Z,5.72
2019-02-27T20:12:59.716Z,6.45
2019-02-27T20:15:30.742Z,6.60
2019-02-27T20:18:01.839Z,6.65
2019-02-27T20:20:32.920Z,6.65
2019-02-27T20:23:03.982Z,5.90
2019-02-27T20:25:35.123Z,7.55
2019-02-27T20:28:06.373Z,7.70
2019-02-27T20:30:38.120Z,8.38
2019-02-27T20:33:09.172Z,8.23
2019-02-27T20:35:41.716Z,7.25
2019-02-27T20:38:16.151Z,7.20
2019-02-27T20:40:45.546Z,7.70
2019-02-27T20:43:16.628Z,9.10
2019-02-27T20:45:47.658Z,7.67
2019-02-27T20:48:18.720Z,8.55
2019-02-27T20:50:55.322Z,8.93
2019-02-27T20:53:26.596Z,9.35
2019-02-27T20:55:57.642Z,10.13
2019-02-27T20:58:29.705Z,9.35
2019-02-27T21:01:00.764Z,8.43
2019-02-27T21:03:31.825Z,8.45
2019-02-27T21:06:02.888Z,9.73
2019-02-27T21:08:36.128Z,8.78
2019-02-27T21:11:06.672Z,7.83
2019-02-27T21:13:37.703Z,8.50
2019-02-27T21:18:41.495Z,9.00
2019-02-27T21:21:12.567Z,7.97
2019-02-27T21:23:43.596Z,8.45
2019-02-27T21:26:14.732Z,8.33
2019-02-27T21:27:12.501Z,7.95
2019-02-27T21:28:45.766Z,7.47
2019-02-27T21:31:16.833Z,10.08
2019-02-27T21:33:47.865Z,14.23
2019-02-27T21:36:18.932Z,12.82
2019-02-27T21:38:50.377Z,8.80
2019-02-27T21:41:24.663Z,9.20
2019-02-27T21:43:56.587Z,8.53
2019-02-27T21:46:28.332Z,8.28
2019-02-27T21:48:59.409Z,6.65
2019-02-27T21:51:30.494Z,6.97
2019-02-27T21:54:04.037Z,9.63
2019-02-27T21:56:34.368Z,9.40
2019-02-27T21:59:05.828Z,9.40
2019-02-27T22:01:36.923Z,9.20
2019-02-27T22:04:09.689Z,8.25
2019-02-27T22:06:40.716Z,8.20
2019-02-27T22:09:13.466Z,7.90
2019-02-27T22:11:44.508Z,6.87
2019-02-27T22:14:16.654Z,7.30
2019-02-27T22:16:48.297Z,8.13
2019-02-27T22:19:20.058Z,8.00
2019-02-27T22:21:51.164Z,7.58
2019-02-27T22:24:22.218Z,8.38
2019-02-27T22:26:53.268Z,6.67
2019-02-27T22:29:25.180Z,7.70
2019-02-27T22:31:57.052Z,7.50
2019-02-27T22:34:29.113Z,8.10
2019-02-27T22:37:00.149Z,6.62
2019-02-27T22:39:32.624Z,6.62
2019-02-27T22:42:03.708Z,8.20
2019-02-27T22:44:34.769Z,5.95
2019-02-27T22:47:05.795Z,6.50
2019-02-27T22:49:36.847Z,6.95
2019-02-27T22:52:07.875Z,5.80
2019-02-27T22:54:38.938Z,5.65
2019-02-27T22:57:11.564Z,6.58
2019-02-27T22:59:42.629Z,6.50
2019-02-27T23:02:13.792Z,6.33
2019-02-27T23:04:45.814Z,5.85
2019-02-27T23:07:20.583Z,6.10
2019-02-27T23:09:49.605Z,5.30
2019-02-27T23:12:22.519Z,6.83
2019-02-27T23:14:53.787Z,5.70
2019-02-27T23:17:24.883Z,5.28
2019-02-27T23:19:55.911Z,4.85
2019-02-27T23:22:28.721Z,4.55
2019-02-27T23:24:59.875Z,5.33
2019-02-27T23:27:30.943Z,5.22
2019-02-27T23:30:01.986Z,5.25
2019-02-27T23:32:33.044Z,4.42
2019-02-27T23:35:04.468Z,4.33
2019-02-27T23:37:35.529Z,4.03
2019-02-27T23:40:08.060Z,4.35
2019-02-27T23:42:39.129Z,2.98
2019-02-27T23:45:11.014Z,2.92
2019-02-27T23:47:42.199Z,2.60
2019-02-27T23:50:14.497Z,2.42
2019-02-27T23:52:45.548Z,1.87
2019-02-27T23:55:16.704Z,2.10
2019-02-27T23:57:47.783Z,2.47
